Aérodrome :
LOGIN :

S'inscrire | Disclaimer

   EN    FR    IT 

 










Légende :    VFR   VFR Marginal   IFR   IFR Intensif   IFR Très Intensif
Visi : 
Plafond : 
>= 8 km
>= 3000ft
5 à 8 km
1000 à 3000 ft
1500m à 5 km
500 à 1000 ft
800 à 1500m
200 à 500 ft
< 800m
< 200 ft
Symboles :   Orages  Brouillard  Fortes neiges  Fortes précipitations  Vent > 20 kt
SIGMETs :   Divers  Orages  Givrage  Turbulence  Onde Orograph.  Cendres Volcan.






- Altitude de l'aérodrome : 100 ft


EBDT - Schaffen

DERNIER METAR :
  • 171825Z AUTO 25011KT 9999 FEW033/// BKN100/// OVC120/// 07/02 Q1018 BLU

METARs EXPIRÉS :
  • 171755Z AUTO 25012KT 9999 SCT090/// BKN100/// OVC120/// 08/02 Q1017 BLU
  • 171725Z AUTO 25012KT 9999 FEW100/// BKN110/// BKN160/// 09/03 Q1017 BLU
  • 171655Z AUTO 23009KT 9999 FEW033/// SCT120/// BKN150/// 09/04 Q1016 BLU
  • 171625Z AUTO 25007KT 9999 FEW031/// SCT037/// BKN042/// 09/05 Q1016 BLU
  • 171555Z AUTO 26013KT 9999 FEW030/// SCT050/// BKN065/// 10/04 Q1015 BLU

Prévision TAF périmée.



MET'MAP, la Météo Aéronautique d'un coup d'oeil ! - Copyright ORBIFLY Décembre 2007 - Disclaimer

ORBIFLY MET'MAP TEAM :

Programmation & Développement : Alexandra Zaïnal
Sur une idée originale de : Baudouin d'Aumeries
Assistance à la programmation : Marc-Olivier Méhu
Soutien technique & logistique : Manuel Goepfert

Contact : metmap@orbifly.com




SOURCES & CREDITS :

   NOAA